sensor_id;sensor_type;location;lat;lon;timestamp;P1;durP1;ratioP1;P2;durP2;ratioP2
36383;SDS011;22418;51.210;6.976;2023-07-22T00:01:47;12.70;;;7.83;;
36383;SDS011;22418;51.210;6.976;2023-07-22T00:04:18;11.37;;;7.63;;
36383;SDS011;22418;51.210;6.976;2023-07-22T00:06:48;13.60;;;8.30;;
36383;SDS011;22418;51.210;6.976;2023-07-22T00:09:19;12.97;;;6.87;;
36383;SDS011;22418;51.210;6.976;2023-07-22T00:11:50;11.57;;;7.10;;
36383;SDS011;22418;51.210;6.976;2023-07-22T00:14:20;12.53;;;7.67;;
36383;SDS011;22418;51.210;6.976;2023-07-22T00:16:51;13.60;;;7.73;;
36383;SDS011;22418;51.210;6.976;2023-07-22T00:19:21;12.47;;;7.70;;
36383;SDS011;22418;51.210;6.976;2023-07-22T00:21:53;13.50;;;7.20;;
36383;SDS011;22418;51.210;6.976;2023-07-22T00:24:23;14.97;;;7.83;;
36383;SDS011;22418;51.210;6.976;2023-07-22T00:26:54;12.53;;;7.27;;
36383;SDS011;22418;51.210;6.976;2023-07-22T00:29:25;17.33;;;8.07;;
36383;SDS011;22418;51.210;6.976;2023-07-22T00:31:56;15.07;;;8.48;;
36383;SDS011;22418;51.210;6.976;2023-07-22T00:34:26;10.43;;;7.57;;
36383;SDS011;22418;51.210;6.976;2023-07-22T00:36:57;14.77;;;7.97;;
36383;SDS011;22418;51.210;6.976;2023-07-22T00:39:28;19.52;;;8.10;;
36383;SDS011;22418;51.210;6.976;2023-07-22T00:41:58;11.50;;;7.43;;
36383;SDS011;22418;51.210;6.976;2023-07-22T00:44:29;15.43;;;8.00;;
36383;SDS011;22418;51.210;6.976;2023-07-22T00:46:59;10.93;;;7.73;;
36383;SDS011;22418;51.210;6.976;2023-07-22T00:49:31;13.85;;;7.60;;
36383;SDS011;22418;51.210;6.976;2023-07-22T00:52:02;12.23;;;7.93;;
36383;SDS011;22418;51.210;6.976;2023-07-22T00:54:35;13.27;;;7.60;;
36383;SDS011;22418;51.210;6.976;2023-07-22T00:57:06;11.70;;;7.00;;
36383;SDS011;22418;51.210;6.976;2023-07-22T00:59:37;10.88;;;6.97;;
36383;SDS011;22418;51.210;6.976;2023-07-22T01:02:09;11.95;;;7.30;;
36383;SDS011;22418;51.210;6.976;2023-07-22T01:04:39;12.10;;;7.23;;
36383;SDS011;22418;51.210;6.976;2023-07-22T01:07:10;12.65;;;7.53;;
36383;SDS011;22418;51.210;6.976;2023-07-22T01:09:42;13.93;;;7.75;;
36383;SDS011;22418;51.210;6.976;2023-07-22T01:12:13;21.83;;;8.43;;
36383;SDS011;22418;51.210;6.976;2023-07-22T01:14:43;12.50;;;7.23;;
36383;SDS011;22418;51.210;6.976;2023-07-22T01:17:14;16.00;;;7.40;;
36383;SDS011;22418;51.210;6.976;2023-07-22T01:19:45;14.30;;;7.32;;
36383;SDS011;22418;51.210;6.976;2023-07-22T01:22:17;9.38;;;6.97;;
36383;SDS011;22418;51.210;6.976;2023-07-22T01:24:48;14.40;;;7.35;;
36383;SDS011;22418;51.210;6.976;2023-07-22T01:27:18;17.47;;;8.10;;
36383;SDS011;22418;51.210;6.976;2023-07-22T01:29:52;14.38;;;7.78;;
36383;SDS011;22418;51.210;6.976;2023-07-22T01:32:23;14.38;;;7.88;;
36383;SDS011;22418;51.210;6.976;2023-07-22T01:34:54;12.60;;;7.50;;
36383;SDS011;22418;51.210;6.976;2023-07-22T01:37:24;16.03;;;7.50;;
36383;SDS011;22418;51.210;6.976;2023-07-22T01:39:55;17.20;;;7.83;;
36383;SDS011;22418;51.210;6.976;2023-07-22T01:42:27;14.85;;;8.40;;
36383;SDS011;22418;51.210;6.976;2023-07-22T01:44:57;18.43;;;8.00;;
36383;SDS011;22418;51.210;6.976;2023-07-22T01:47:28;12.23;;;7.90;;
36383;SDS011;22418;51.210;6.976;2023-07-22T01:49:59;12.50;;;7.00;;
36383;SDS011;22418;51.210;6.976;2023-07-22T01:52:29;17.33;;;7.33;;
36383;SDS011;22418;51.210;6.976;2023-07-22T01:55:00;13.87;;;7.87;;
36383;SDS011;22418;51.210;6.976;2023-07-22T01:57:34;14.32;;;7.93;;
36383;SDS011;22418;51.210;6.976;2023-07-22T02:00:05;12.15;;;7.53;;
36383;SDS011;22418;51.210;6.976;2023-07-22T02:02:37;12.38;;;7.47;;
36383;SDS011;22418;51.210;6.976;2023-07-22T02:05:07;18.25;;;7.95;;
36383;SDS011;22418;51.210;6.976;2023-07-22T02:07:42;13.50;;;7.25;;
36383;SDS011;22418;51.210;6.976;2023-07-22T02:10:12;17.63;;;8.37;;
36383;SDS011;22418;51.210;6.976;2023-07-22T02:12:43;16.90;;;7.13;;
36383;SDS011;22418;51.210;6.976;2023-07-22T02:15:13;11.93;;;7.37;;
36383;SDS011;22418;51.210;6.976;2023-07-22T02:17:45;12.80;;;7.13;;
36383;SDS011;22418;51.210;6.976;2023-07-22T02:20:16;12.60;;;7.57;;
36383;SDS011;22418;51.210;6.976;2023-07-22T02:22:47;13.93;;;7.68;;
36383;SDS011;22418;51.210;6.976;2023-07-22T02:25:18;12.50;;;7.20;;
36383;SDS011;22418;51.210;6.976;2023-07-22T02:27:48;10.00;;;6.90;;
36383;SDS011;22418;51.210;6.976;2023-07-22T02:30:19;10.53;;;6.80;;
36383;SDS011;22418;51.210;6.976;2023-07-22T02:32:49;19.43;;;7.10;;
36383;SDS011;22418;51.210;6.976;2023-07-22T02:35:20;11.30;;;6.63;;
36383;SDS011;22418;51.210;6.976;2023-07-22T02:37:50;13.47;;;7.17;;
36383;SDS011;22418;51.210;6.976;2023-07-22T02:40:21;11.10;;;7.40;;
36383;SDS011;22418;51.210;6.976;2023-07-22T02:42:51;19.00;;;7.63;;
36383;SDS011;22418;51.210;6.976;2023-07-22T02:45:22;14.33;;;7.30;;
36383;SDS011;22418;51.210;6.976;2023-07-22T02:47:52;19.57;;;8.00;;
36383;SDS011;22418;51.210;6.976;2023-07-22T02:50:24;13.23;;;7.68;;
36383;SDS011;22418;51.210;6.976;2023-07-22T02:55:26;15.05;;;7.88;;
36383;SDS011;22418;51.210;6.976;2023-07-22T02:57:56;16.40;;;7.67;;
36383;SDS011;22418;51.210;6.976;2023-07-22T03:00:27;19.13;;;8.83;;
36383;SDS011;22418;51.210;6.976;2023-07-22T03:02:57;15.43;;;7.50;;
36383;SDS011;22418;51.210;6.976;2023-07-22T03:05:31;14.10;;;7.38;;
36383;SDS011;22418;51.210;6.976;2023-07-22T03:08:02;12.30;;;7.30;;
36383;SDS011;22418;51.210;6.976;2023-07-22T03:10:33;17.92;;;7.97;;
36383;SDS011;22418;51.210;6.976;2023-07-22T03:13:04;14.47;;;7.70;;
36383;SDS011;22418;51.210;6.976;2023-07-22T03:15:34;13.73;;;8.13;;
36383;SDS011;22418;51.210;6.976;2023-07-22T03:18:05;13.13;;;7.83;;
36383;SDS011;22418;51.210;6.976;2023-07-22T03:23:10;14.85;;;7.70;;
36383;SDS011;22418;51.210;6.976;2023-07-22T03:25:40;13.57;;;6.83;;
36383;SDS011;22418;51.210;6.976;2023-07-22T03:28:11;14.43;;;7.23;;
36383;SDS011;22418;51.210;6.976;2023-07-22T03:30:42;14.10;;;7.37;;
36383;SDS011;22418;51.210;6.976;2023-07-22T03:33:12;14.03;;;8.30;;
36383;SDS011;22418;51.210;6.976;2023-07-22T03:35:44;12.82;;;7.45;;
36383;SDS011;22418;51.210;6.976;2023-07-22T03:38:16;12.90;;;7.63;;
36383;SDS011;22418;51.210;6.976;2023-07-22T03:40:46;13.47;;;6.73;;
36383;SDS011;22418;51.210;6.976;2023-07-22T03:43:17;12.13;;;7.28;;
36383;SDS011;22418;51.210;6.976;2023-07-22T03:45:48;11.07;;;6.33;;
36383;SDS011;22418;51.210;6.976;2023-07-22T03:48:18;15.03;;;7.63;;
36383;SDS011;22418;51.210;6.976;2023-07-22T03:50:49;13.27;;;7.23;;
36383;SDS011;22418;51.210;6.976;2023-07-22T03:53:20;11.32;;;6.60;;
36383;SDS011;22418;51.210;6.976;2023-07-22T03:55:51;13.60;;;6.97;;
36383;SDS011;22418;51.210;6.976;2023-07-22T03:58:21;9.90;;;6.87;;
36383;SDS011;22418;51.210;6.976;2023-07-22T04:00:52;13.10;;;7.40;;
36383;SDS011;22418;51.210;6.976;2023-07-22T04:03:22;12.33;;;6.33;;
36383;SDS011;22418;51.210;6.976;2023-07-22T04:05:53;12.63;;;6.93;;
36383;SDS011;22418;51.210;6.976;2023-07-22T04:08:25;16.25;;;7.00;;
36383;SDS011;22418;51.210;6.976;2023-07-22T04:10:56;13.20;;;7.43;;
36383;SDS011;22418;51.210;6.976;2023-07-22T04:13:27;12.43;;;7.50;;
36383;SDS011;22418;51.210;6.976;2023-07-22T04:15:58;12.97;;;7.07;;
36383;SDS011;22418;51.210;6.976;2023-07-22T04:18:28;14.07;;;8.00;;
36383;SDS011;22418;51.210;6.976;2023-07-22T04:21:04;14.05;;;7.53;;
36383;SDS011;22418;51.210;6.976;2023-07-22T04:23:34;13.83;;;7.17;;
36383;SDS011;22418;51.210;6.976;2023-07-22T04:26:05;13.83;;;7.63;;
36383;SDS011;22418;51.210;6.976;2023-07-22T04:28:37;14.15;;;7.40;;
36383;SDS011;22418;51.210;6.976;2023-07-22T04:31:08;12.20;;;7.80;;
36383;SDS011;22418;51.210;6.976;2023-07-22T04:33:39;13.38;;;7.68;;
36383;SDS011;22418;51.210;6.976;2023-07-22T04:36:11;15.73;;;8.85;;
36383;SDS011;22418;51.210;6.976;2023-07-22T04:38:42;12.30;;;7.80;;
36383;SDS011;22418;51.210;6.976;2023-07-22T04:41:12;10.80;;;7.37;;
36383;SDS011;22418;51.210;6.976;2023-07-22T04:43:43;14.80;;;8.17;;
36383;SDS011;22418;51.210;6.976;2023-07-22T04:46:13;12.67;;;7.97;;
36383;SDS011;22418;51.210;6.976;2023-07-22T04:51:16;17.83;;;7.60;;
36383;SDS011;22418;51.210;6.976;2023-07-22T04:53:46;14.23;;;7.67;;
36383;SDS011;22418;51.210;6.976;2023-07-22T04:56:17;13.97;;;8.40;;
36383;SDS011;22418;51.210;6.976;2023-07-22T04:58:48;16.13;;;8.27;;
36383;SDS011;22418;51.210;6.976;2023-07-22T05:01:19;14.57;;;7.03;;
36383;SDS011;22418;51.210;6.976;2023-07-22T05:03:50;17.33;;;9.05;;
36383;SDS011;22418;51.210;6.976;2023-07-22T05:06:20;14.63;;;8.40;;
36383;SDS011;22418;51.210;6.976;2023-07-22T05:08:51;15.45;;;7.70;;
36383;SDS011;22418;51.210;6.976;2023-07-22T05:11:22;13.70;;;8.07;;
36383;SDS011;22418;51.210;6.976;2023-07-22T05:13:53;12.55;;;7.03;;
36383;SDS011;22418;51.210;6.976;2023-07-22T05:16:24;11.20;;;7.22;;
36383;SDS011;22418;51.210;6.976;2023-07-22T05:18:54;13.43;;;7.47;;
36383;SDS011;22418;51.210;6.976;2023-07-22T05:21:25;13.83;;;8.50;;
36383;SDS011;22418;51.210;6.976;2023-07-22T05:23:55;13.47;;;8.00;;
36383;SDS011;22418;51.210;6.976;2023-07-22T05:26:26;16.43;;;8.40;;
36383;SDS011;22418;51.210;6.976;2023-07-22T05:28:56;16.20;;;8.17;;
36383;SDS011;22418;51.210;6.976;2023-07-22T05:31:29;15.95;;;7.50;;
36383;SDS011;22418;51.210;6.976;2023-07-22T05:34:00;13.43;;;7.70;;
36383;SDS011;22418;51.210;6.976;2023-07-22T05:36:30;14.17;;;7.47;;
36383;SDS011;22418;51.210;6.976;2023-07-22T05:39:01;15.37;;;8.73;;
36383;SDS011;22418;51.210;6.976;2023-07-22T05:41:35;17.60;;;8.23;;
36383;SDS011;22418;51.210;6.976;2023-07-22T05:44:05;14.80;;;7.88;;
36383;SDS011;22418;51.210;6.976;2023-07-22T05:46:36;12.10;;;7.30;;
36383;SDS011;22418;51.210;6.976;2023-07-22T05:49:08;13.77;;;7.40;;
36383;SDS011;22418;51.210;6.976;2023-07-22T05:51:40;12.52;;;7.38;;
36383;SDS011;22418;51.210;6.976;2023-07-22T05:54:11;9.43;;;6.10;;
36383;SDS011;22418;51.210;6.976;2023-07-22T05:56:41;12.07;;;8.23;;
36383;SDS011;22418;51.210;6.976;2023-07-22T05:59:12;14.57;;;8.03;;
36383;SDS011;22418;51.210;6.976;2023-07-22T06:01:42;13.50;;;8.00;;
36383;SDS011;22418;51.210;6.976;2023-07-22T06:04:13;13.50;;;7.40;;
36383;SDS011;22418;51.210;6.976;2023-07-22T06:06:44;13.03;;;6.90;;
36383;SDS011;22418;51.210;6.976;2023-07-22T06:09:14;11.50;;;7.32;;
36383;SDS011;22418;51.210;6.976;2023-07-22T06:11:45;9.83;;;7.13;;
36383;SDS011;22418;51.210;6.976;2023-07-22T06:14:15;12.37;;;7.80;;
36383;SDS011;22418;51.210;6.976;2023-07-22T06:16:46;12.25;;;7.82;;
36383;SDS011;22418;51.210;6.976;2023-07-22T06:19:17;12.27;;;7.87;;
36383;SDS011;22418;51.210;6.976;2023-07-22T06:21:48;10.90;;;7.30;;
36383;SDS011;22418;51.210;6.976;2023-07-22T06:24:18;10.03;;;7.10;;
36383;SDS011;22418;51.210;6.976;2023-07-22T06:26:49;11.23;;;7.47;;
36383;SDS011;22418;51.210;6.976;2023-07-22T06:29:19;11.17;;;6.53;;
36383;SDS011;22418;51.210;6.976;2023-07-22T06:31:50;13.23;;;7.03;;
36383;SDS011;22418;51.210;6.976;2023-07-22T06:34:20;9.53;;;6.37;;
36383;SDS011;22418;51.210;6.976;2023-07-22T06:36:53;10.98;;;6.03;;
36383;SDS011;22418;51.210;6.976;2023-07-22T06:39:24;9.50;;;6.83;;
36383;SDS011;22418;51.210;6.976;2023-07-22T06:41:54;10.30;;;7.17;;
36383;SDS011;22418;51.210;6.976;2023-07-22T06:44:25;13.77;;;7.50;;
36383;SDS011;22418;51.210;6.976;2023-07-22T06:46:55;13.00;;;7.37;;
36383;SDS011;22418;51.210;6.976;2023-07-22T06:49:26;12.25;;;7.10;;
36383;SDS011;22418;51.210;6.976;2023-07-22T06:51:57;16.70;;;8.07;;
36383;SDS011;22418;51.210;6.976;2023-07-22T06:54:28;13.48;;;7.63;;
36383;SDS011;22418;51.210;6.976;2023-07-22T06:56:58;8.27;;;5.80;;
36383;SDS011;22418;51.210;6.976;2023-07-22T06:59:29;9.23;;;5.87;;
36383;SDS011;22418;51.210;6.976;2023-07-22T07:01:59;9.83;;;6.20;;
36383;SDS011;22418;51.210;6.976;2023-07-22T07:04:30;10.43;;;5.63;;
36383;SDS011;22418;51.210;6.976;2023-07-22T07:07:01;10.48;;;6.13;;
36383;SDS011;22418;51.210;6.976;2023-07-22T07:09:32;8.88;;;6.38;;
36383;SDS011;22418;51.210;6.976;2023-07-22T07:12:04;11.07;;;6.30;;
36383;SDS011;22418;51.210;6.976;2023-07-22T07:14:36;11.10;;;5.68;;
36383;SDS011;22418;51.210;6.976;2023-07-22T07:17:06;10.27;;;6.47;;
36383;SDS011;22418;51.210;6.976;2023-07-22T07:19:37;9.63;;;6.47;;
36383;SDS011;22418;51.210;6.976;2023-07-22T07:22:07;10.90;;;7.60;;
36383;SDS011;22418;51.210;6.976;2023-07-22T07:24:38;10.82;;;6.80;;
36383;SDS011;22418;51.210;6.976;2023-07-22T07:27:08;10.52;;;6.22;;
36383;SDS011;22418;51.210;6.976;2023-07-22T07:29:39;12.68;;;6.95;;
36383;SDS011;22418;51.210;6.976;2023-07-22T07:32:10;9.93;;;6.40;;
36383;SDS011;22418;51.210;6.976;2023-07-22T07:34:40;11.10;;;6.32;;
36383;SDS011;22418;51.210;6.976;2023-07-22T07:37:11;12.27;;;6.50;;
36383;SDS011;22418;51.210;6.976;2023-07-22T07:39:41;11.20;;;7.60;;
36383;SDS011;22418;51.210;6.976;2023-07-22T07:42:12;11.95;;;6.85;;
36383;SDS011;22418;51.210;6.976;2023-07-22T07:44:42;11.70;;;7.07;;
36383;SDS011;22418;51.210;6.976;2023-07-22T07:47:13;8.45;;;6.15;;
36383;SDS011;22418;51.210;6.976;2023-07-22T07:49:43;10.33;;;6.43;;
36383;SDS011;22418;51.210;6.976;2023-07-22T07:52:15;12.10;;;6.65;;
36383;SDS011;22418;51.210;6.976;2023-07-22T07:54:45;10.20;;;6.28;;
36383;SDS011;22418;51.210;6.976;2023-07-22T07:57:16;15.60;;;7.70;;
36383;SDS011;22418;51.210;6.976;2023-07-22T07:59:46;12.80;;;7.17;;
36383;SDS011;22418;51.210;6.976;2023-07-22T08:02:19;15.52;;;7.40;;
36383;SDS011;22418;51.210;6.976;2023-07-22T08:04:50;11.82;;;7.07;;
36383;SDS011;22418;51.210;6.976;2023-07-22T08:07:21;13.40;;;7.40;;
36383;SDS011;22418;51.210;6.976;2023-07-22T08:09:52;9.48;;;6.32;;
36383;SDS011;22418;51.210;6.976;2023-07-22T08:12:22;10.80;;;7.17;;
36383;SDS011;22418;51.210;6.976;2023-07-22T08:14:53;12.60;;;7.17;;
36383;SDS011;22418;51.210;6.976;2023-07-22T08:17:24;13.20;;;7.00;;
36383;SDS011;22418;51.210;6.976;2023-07-22T08:19:54;13.87;;;7.17;;
36383;SDS011;22418;51.210;6.976;2023-07-22T08:22:25;14.77;;;7.07;;
36383;SDS011;22418;51.210;6.976;2023-07-22T08:24:55;13.53;;;6.60;;
36383;SDS011;22418;51.210;6.976;2023-07-22T08:27:26;14.07;;;7.17;;
36383;SDS011;22418;51.210;6.976;2023-07-22T08:29:56;15.57;;;7.30;;
36383;SDS011;22418;51.210;6.976;2023-07-22T08:32:27;14.48;;;7.18;;
36383;SDS011;22418;51.210;6.976;2023-07-22T08:34:57;11.63;;;6.60;;
36383;SDS011;22418;51.210;6.976;2023-07-22T08:37:28;13.77;;;6.37;;
36383;SDS011;22418;51.210;6.976;2023-07-22T08:39:59;10.18;;;6.00;;
36383;SDS011;22418;51.210;6.976;2023-07-22T08:42:30;16.73;;;6.27;;
36383;SDS011;22418;51.210;6.976;2023-07-22T08:45:02;14.30;;;6.40;;
36383;SDS011;22418;51.210;6.976;2023-07-22T08:47:34;12.90;;;6.35;;
36383;SDS011;22418;51.210;6.976;2023-07-22T08:50:08;13.48;;;7.50;;
36383;SDS011;22418;51.210;6.976;2023-07-22T08:52:41;10.52;;;6.55;;
36383;SDS011;22418;51.210;6.976;2023-07-22T08:55:12;13.85;;;6.90;;
36383;SDS011;22418;51.210;6.976;2023-07-22T08:57:43;10.52;;;6.50;;
36383;SDS011;22418;51.210;6.976;2023-07-22T09:00:16;9.77;;;6.32;;
36383;SDS011;22418;51.210;6.976;2023-07-22T09:02:48;12.18;;;6.75;;
36383;SDS011;22418;51.210;6.976;2023-07-22T09:05:19;8.77;;;5.90;;
36383;SDS011;22418;51.210;6.976;2023-07-22T09:10:21;20.73;;;10.87;;
36383;SDS011;22418;51.210;6.976;2023-07-22T09:12:54;11.93;;;8.05;;
36383;SDS011;22418;51.210;6.976;2023-07-22T09:15:25;14.90;;;7.57;;
36383;SDS011;22418;51.210;6.976;2023-07-22T09:17:56;12.23;;;5.63;;
36383;SDS011;22418;51.210;6.976;2023-07-22T09:20:26;11.13;;;6.07;;
36383;SDS011;22418;51.210;6.976;2023-07-22T09:22:59;8.13;;;5.50;;
36383;SDS011;22418;51.210;6.976;2023-07-22T09:28:01;7.88;;;5.40;;
36383;SDS011;22418;51.210;6.976;2023-07-22T09:30:33;11.10;;;5.20;;
36383;SDS011;22418;51.210;6.976;2023-07-22T09:33:06;8.10;;;4.60;;
36383;SDS011;22418;51.210;6.976;2023-07-22T09:35:45;8.30;;;5.00;;
36383;SDS011;22418;51.210;6.976;2023-07-22T09:38:24;8.20;;;5.40;;
36383;SDS011;22418;51.210;6.976;2023-07-22T09:40:55;7.93;;;5.22;;
36383;SDS011;22418;51.210;6.976;2023-07-22T09:43:25;8.40;;;5.40;;
36383;SDS011;22418;51.210;6.976;2023-07-22T09:46:05;8.07;;;4.32;;
36383;SDS011;22418;51.210;6.976;2023-07-22T09:48:40;8.13;;;4.45;;
36383;SDS011;22418;51.210;6.976;2023-07-22T09:51:13;7.15;;;4.18;;
36383;SDS011;22418;51.210;6.976;2023-07-22T09:53:47;9.77;;;4.75;;
36383;SDS011;22418;51.210;6.976;2023-07-22T09:56:30;9.55;;;4.88;;
36383;SDS011;22418;51.210;6.976;2023-07-22T09:59:03;7.32;;;4.38;;
36383;SDS011;22418;51.210;6.976;2023-07-22T10:01:37;5.88;;;3.70;;
36383;SDS011;22418;51.210;6.976;2023-07-22T10:04:09;9.55;;;4.72;;
36383;SDS011;22418;51.210;6.976;2023-07-22T10:06:41;5.85;;;3.65;;
36383;SDS011;22418;51.210;6.976;2023-07-22T10:09:13;5.20;;;3.97;;
36383;SDS011;22418;51.210;6.976;2023-07-22T10:11:45;8.25;;;3.83;;
36383;SDS011;22418;51.210;6.976;2023-07-22T10:14:16;5.82;;;4.03;;
36383;SDS011;22418;51.210;6.976;2023-07-22T10:16:48;8.15;;;3.60;;
36383;SDS011;22418;51.210;6.976;2023-07-22T10:19:19;6.70;;;3.88;;
36383;SDS011;22418;51.210;6.976;2023-07-22T10:21:52;5.43;;;3.10;;
36383;SDS011;22418;51.210;6.976;2023-07-22T10:26:53;7.03;;;3.10;;
36383;SDS011;22418;51.210;6.976;2023-07-22T10:29:25;5.28;;;3.17;;
36383;SDS011;22418;51.210;6.976;2023-07-22T10:31:56;7.15;;;3.13;;
36383;SDS011;22418;51.210;6.976;2023-07-22T10:34:27;3.50;;;2.60;;
36383;SDS011;22418;51.210;6.976;2023-07-22T10:37:00;5.77;;;3.10;;
36383;SDS011;22418;51.210;6.976;2023-07-22T10:39:30;5.03;;;2.92;;
36383;SDS011;22418;51.210;6.976;2023-07-22T10:42:04;10.47;;;3.17;;
36383;SDS011;22418;51.210;6.976;2023-07-22T10:44:36;3.78;;;2.60;;
36383;SDS011;22418;51.210;6.976;2023-07-22T10:47:08;4.70;;;3.13;;
36383;SDS011;22418;51.210;6.976;2023-07-22T10:49:45;8.95;;;3.10;;
36383;SDS011;22418;51.210;6.976;2023-07-22T10:55:21;4.35;;;2.92;;
36383;SDS011;22418;51.210;6.976;2023-07-22T10:57:53;5.50;;;2.70;;
36383;SDS011;22418;51.210;6.976;2023-07-22T11:00:28;5.55;;;2.95;;
36383;SDS011;22418;51.210;6.976;2023-07-22T11:03:12;6.35;;;3.20;;
36383;SDS011;22418;51.210;6.976;2023-07-22T11:05:47;8.32;;;3.40;;
36383;SDS011;22418;51.210;6.976;2023-07-22T11:08:34;3.45;;;2.58;;
36383;SDS011;22418;51.210;6.976;2023-07-22T11:11:09;5.95;;;2.90;;
36383;SDS011;22418;51.210;6.976;2023-07-22T11:13:41;5.55;;;2.80;;
36383;SDS011;22418;51.210;6.976;2023-07-22T11:16:12;4.00;;;2.40;;
36383;SDS011;22418;51.210;6.976;2023-07-22T11:18:43;6.20;;;2.92;;
36383;SDS011;22418;51.210;6.976;2023-07-22T11:21:13;4.97;;;2.40;;
36383;SDS011;22418;51.210;6.976;2023-07-22T11:23:44;4.53;;;3.10;;
36383;SDS011;22418;51.210;6.976;2023-07-22T11:26:14;5.07;;;2.93;;
36383;SDS011;22418;51.210;6.976;2023-07-22T11:28:46;8.52;;;3.20;;
36383;SDS011;22418;51.210;6.976;2023-07-22T11:31:16;6.38;;;3.30;;
36383;SDS011;22418;51.210;6.976;2023-07-22T11:33:47;3.80;;;2.37;;
36383;SDS011;22418;51.210;6.976;2023-07-22T11:36:18;5.63;;;2.53;;
36383;SDS011;22418;51.210;6.976;2023-07-22T11:38:49;3.80;;;2.55;;
36383;SDS011;22418;51.210;6.976;2023-07-22T11:41:20;4.30;;;2.20;;
36383;SDS011;22418;51.210;6.976;2023-07-22T11:43:50;5.93;;;2.50;;
36383;SDS011;22418;51.210;6.976;2023-07-22T11:46:21;5.13;;;2.83;;
36383;SDS011;22418;51.210;6.976;2023-07-22T11:48:52;5.15;;;2.78;;
36383;SDS011;22418;51.210;6.976;2023-07-22T11:51:24;6.88;;;2.30;;
36383;SDS011;22418;51.210;6.976;2023-07-22T11:53:55;4.35;;;2.90;;
36383;SDS011;22418;51.210;6.976;2023-07-22T11:56:27;4.28;;;2.45;;
36383;SDS011;22418;51.210;6.976;2023-07-22T11:58:58;6.93;;;3.03;;
36383;SDS011;22418;51.210;6.976;2023-07-22T12:01:31;4.90;;;2.57;;
36383;SDS011;22418;51.210;6.976;2023-07-22T12:04:08;4.43;;;2.88;;
36383;SDS011;22418;51.210;6.976;2023-07-22T12:06:43;4.55;;;2.60;;
36383;SDS011;22418;51.210;6.976;2023-07-22T12:09:14;7.17;;;3.00;;
36383;SDS011;22418;51.210;6.976;2023-07-22T12:11:44;4.00;;;2.90;;
36383;SDS011;22418;51.210;6.976;2023-07-22T12:14:15;7.47;;;2.23;;
36383;SDS011;22418;51.210;6.976;2023-07-22T12:16:47;5.53;;;3.28;;
36383;SDS011;22418;51.210;6.976;2023-07-22T12:19:17;5.70;;;3.13;;
36383;SDS011;22418;51.210;6.976;2023-07-22T12:21:48;6.30;;;2.80;;
36383;SDS011;22418;51.210;6.976;2023-07-22T12:24:19;4.40;;;2.75;;
36383;SDS011;22418;51.210;6.976;2023-07-22T12:26:49;3.13;;;2.20;;
36383;SDS011;22418;51.210;6.976;2023-07-22T12:29:20;3.67;;;2.70;;
36383;SDS011;22418;51.210;6.976;2023-07-22T12:31:52;4.93;;;3.05;;
36383;SDS011;22418;51.210;6.976;2023-07-22T12:34:22;5.77;;;2.80;;
36383;SDS011;22418;51.210;6.976;2023-07-22T12:36:53;5.50;;;2.87;;
36383;SDS011;22418;51.210;6.976;2023-07-22T12:39:23;5.07;;;3.13;;
36383;SDS011;22418;51.210;6.976;2023-07-22T12:41:54;6.23;;;2.47;;
36383;SDS011;22418;51.210;6.976;2023-07-22T12:44:24;4.10;;;2.80;;
36383;SDS011;22418;51.210;6.976;2023-07-22T12:46:55;4.73;;;2.83;;
36383;SDS011;22418;51.210;6.976;2023-07-22T12:49:25;4.13;;;2.60;;
36383;SDS011;22418;51.210;6.976;2023-07-22T12:51:56;6.60;;;2.53;;
36383;SDS011;22418;51.210;6.976;2023-07-22T12:54:33;5.30;;;2.90;;
36383;SDS011;22418;51.210;6.976;2023-07-22T12:57:04;11.37;;;3.17;;
36383;SDS011;22418;51.210;6.976;2023-07-22T12:59:35;4.03;;;2.80;;
36383;SDS011;22418;51.210;6.976;2023-07-22T13:02:05;7.73;;;3.37;;
36383;SDS011;22418;51.210;6.976;2023-07-22T13:04:36;5.00;;;2.57;;
36383;SDS011;22418;51.210;6.976;2023-07-22T13:07:06;5.00;;;2.93;;
36383;SDS011;22418;51.210;6.976;2023-07-22T13:09:37;4.00;;;2.90;;
36383;SDS011;22418;51.210;6.976;2023-07-22T13:12:08;9.40;;;3.17;;
36383;SDS011;22418;51.210;6.976;2023-07-22T13:14:38;5.03;;;3.13;;
36383;SDS011;22418;51.210;6.976;2023-07-22T13:17:09;3.50;;;2.83;;
36383;SDS011;22418;51.210;6.976;2023-07-22T13:19:39;8.37;;;2.97;;
36383;SDS011;22418;51.210;6.976;2023-07-22T13:22:10;4.80;;;3.00;;
36383;SDS011;22418;51.210;6.976;2023-07-22T13:24:40;4.20;;;2.90;;
36383;SDS011;22418;51.210;6.976;2023-07-22T13:27:11;6.00;;;3.10;;
36383;SDS011;22418;51.210;6.976;2023-07-22T13:29:42;3.70;;;2.70;;
36383;SDS011;22418;51.210;6.976;2023-07-22T13:32:12;3.73;;;2.60;;
36383;SDS011;22418;51.210;6.976;2023-07-22T13:34:43;4.57;;;3.00;;
36383;SDS011;22418;51.210;6.976;2023-07-22T13:37:14;3.40;;;2.30;;
36383;SDS011;22418;51.210;6.976;2023-07-22T13:39:44;3.87;;;2.60;;
36383;SDS011;22418;51.210;6.976;2023-07-22T13:42:15;4.25;;;2.72;;
36383;SDS011;22418;51.210;6.976;2023-07-22T13:44:45;3.60;;;2.70;;
36383;SDS011;22418;51.210;6.976;2023-07-22T13:47:16;4.57;;;2.50;;
36383;SDS011;22418;51.210;6.976;2023-07-22T13:49:46;3.57;;;2.60;;
36383;SDS011;22418;51.210;6.976;2023-07-22T13:52:17;5.37;;;2.60;;
36383;SDS011;22418;51.210;6.976;2023-07-22T13:54:48;5.03;;;2.58;;
36383;SDS011;22418;51.210;6.976;2023-07-22T13:57:18;4.93;;;2.60;;
36383;SDS011;22418;51.210;6.976;2023-07-22T13:59:49;5.10;;;2.33;;
36383;SDS011;22418;51.210;6.976;2023-07-22T14:02:19;5.27;;;2.90;;
36383;SDS011;22418;51.210;6.976;2023-07-22T14:04:50;3.47;;;2.57;;
36383;SDS011;22418;51.210;6.976;2023-07-22T14:07:20;4.77;;;2.33;;
36383;SDS011;22418;51.210;6.976;2023-07-22T14:09:51;8.60;;;3.17;;
36383;SDS011;22418;51.210;6.976;2023-07-22T14:12:23;4.10;;;2.70;;
36383;SDS011;22418;51.210;6.976;2023-07-22T14:14:53;3.40;;;2.60;;
36383;SDS011;22418;51.210;6.976;2023-07-22T14:17:24;3.97;;;2.72;;
36383;SDS011;22418;51.210;6.976;2023-07-22T14:19:55;6.47;;;2.55;;
36383;SDS011;22418;51.210;6.976;2023-07-22T14:22:26;6.53;;;3.00;;
36383;SDS011;22418;51.210;6.976;2023-07-22T14:24:56;4.63;;;3.20;;
36383;SDS011;22418;51.210;6.976;2023-07-22T14:27:27;6.30;;;3.67;;
36383;SDS011;22418;51.210;6.976;2023-07-22T14:29:57;6.60;;;3.47;;
36383;SDS011;22418;51.210;6.976;2023-07-22T14:32:28;4.30;;;2.83;;
36383;SDS011;22418;51.210;6.976;2023-07-22T14:34:58;4.43;;;3.00;;
36383;SDS011;22418;51.210;6.976;2023-07-22T14:37:29;8.43;;;3.03;;
36383;SDS011;22418;51.210;6.976;2023-07-22T14:40:00;4.97;;;3.33;;
36383;SDS011;22418;51.210;6.976;2023-07-22T14:42:31;4.97;;;3.53;;
36383;SDS011;22418;51.210;6.976;2023-07-22T14:45:01;10.30;;;3.30;;
36383;SDS011;22418;51.210;6.976;2023-07-22T14:47:32;4.50;;;3.30;;
36383;SDS011;22418;51.210;6.976;2023-07-22T14:50:03;7.90;;;3.75;;
36383;SDS011;22418;51.210;6.976;2023-07-22T14:52:33;5.65;;;3.60;;
36383;SDS011;22418;51.210;6.976;2023-07-22T14:55:04;5.33;;;3.13;;
36383;SDS011;22418;51.210;6.976;2023-07-22T14:57:35;6.72;;;3.83;;
36383;SDS011;22418;51.210;6.976;2023-07-22T15:00:08;11.33;;;3.50;;
36383;SDS011;22418;51.210;6.976;2023-07-22T15:02:40;9.30;;;4.00;;
36383;SDS011;22418;51.210;6.976;2023-07-22T15:05:11;9.05;;;4.68;;
36383;SDS011;22418;51.210;6.976;2023-07-22T15:07:42;6.23;;;3.90;;
36383;SDS011;22418;51.210;6.976;2023-07-22T15:10:12;6.37;;;4.03;;
36383;SDS011;22418;51.210;6.976;2023-07-22T15:12:45;6.18;;;3.50;;
36383;SDS011;22418;51.210;6.976;2023-07-22T15:15:15;4.33;;;3.13;;
36383;SDS011;22418;51.210;6.976;2023-07-22T15:17:47;8.30;;;3.72;;
36383;SDS011;22418;51.210;6.976;2023-07-22T15:20:18;6.00;;;3.70;;
36383;SDS011;22418;51.210;6.976;2023-07-22T15:22:48;9.20;;;3.67;;